Terminal Aerodrome Forecast
Issued by NWS

Home | Current Version | Previous Version | Text Only | Print | Product List | Glossary On
Versions: 1 2 3 4 5 6 7 8 9 10 11 12 13 14 15 16
000
FTUS45 KREV 241100
TAFCXP
TAF
KCXP 241120Z 2412/2512 VRB04KT P6SM SCT120 BKN200
     FM241900 25016G30KT P6SM SCT100 BKN180
     FM250500 26012G20KT P6SM SCT080 BKN120
     FM251000 26010G18KT P6SM VCSH SCT040 BKN080=

USA.gov is the U.S. government's official web portal to all federal, state and local government web resources and services.